Time;durP1;ratioP1;P1;durP2;ratioP2;P2;SDS_P1;SDS_P2;PMS_P1;PMS_P2;Temp;Humidity;BMP_temperature;BMP_pressure;BME280_temperature;BME280_humidity;BME280_pressure;Samples;Min_cycle;Max_cycle;Signal;HPM_P1;HPM_P2
2022/08/07 00:50:01;;;;;;;12.70;7.35;;;;;;;;;;6162498;23;20249;-89
2022/08/07 00:53:06;;;;;;;11.93;7.05;;;;;;;;;;6146073;23;20208;-89
2022/08/07 00:56:14;;;;;;;13.30;6.82;;;;;;;;;;6146609;23;20192;-89
2022/08/07 00:59:19;;;;;;;15.05;6.88;;;;;;;;;;6148445;23;20176;-89
2022/08/07 01:02:24;;;;;;;12.30;6.88;;;;;;;;;;6149258;23;20168;-91
2022/08/07 01:05:33;;;;;;;14.15;6.88;;;;;;;;;;6149212;23;20292;-89
2022/08/07 01:08:38;;;;;;;13.70;6.30;;;;;;;;;;6148831;23;20251;-89
2022/08/07 01:11:43;;;;;;;13.93;6.35;;;;;;;;;;6149464;23;20176;-89
2022/08/07 01:14:48;;;;;;;10.75;5.55;;;;;;;;;;6151027;23;20188;-89
2022/08/07 01:17:54;;;;;;;9.23;5.22;;;;;;;;;;6150102;23;20176;-88
2022/08/07 01:21:12;;;;;;;7.35;4.50;;;;;;;;;;6149087;23;20218;-89
2022/08/07 01:24:18;;;;;;;9.52;4.75;;;;;;;;;;6150505;23;20169;-89
2022/08/07 01:27:23;;;;;;;5.80;3.80;;;;;;;;;;6151693;23;20204;-90
2022/08/07 01:30:30;;;;;;;7.47;4.03;;;;;;;;;;6150409;23;20244;-90
2022/08/07 01:33:35;;;;;;;7.18;4.07;;;;;;;;;;6152431;23;20168;-90
2022/08/07 01:36:43;;;;;;;7.65;3.38;;;;;;;;;;6154301;23;20628;-90
2022/08/07 01:39:52;;;;;;;7.68;3.92;;;;;;;;;;6155688;23;20241;-89
2022/08/07 01:43:15;;;;;;;7.93;4.70;;;;;;;;;;6155225;23;20179;-91
2022/08/07 01:46:25;;;;;;;5.70;3.55;;;;;;;;;;6152479;23;20172;-89
2022/08/07 01:49:31;;;;;;;11.52;4.88;;;;;;;;;;6170805;23;20164;-89
2022/08/07 01:52:40;;;;;;;8.98;4.47;;;;;;;;;;6170595;23;20506;-89
2022/08/07 01:55:48;;;;;;;7.57;4.90;;;;;;;;;;6170458;23;20207;-89
2022/08/07 01:58:54;;;;;;;10.40;5.35;;;;;;;;;;6170058;23;20169;-89
2022/08/07 02:02:01;;;;;;;8.85;4.60;;;;;;;;;;6169217;23;20171;-89
2022/08/07 02:05:08;;;;;;;12.85;4.82;;;;;;;;;;6171218;23;20244;-89
2022/08/07 02:08:17;;;;;;;11.75;5.00;;;;;;;;;;6169759;23;20184;-89
2022/08/07 02:11:22;;;;;;;15.02;5.22;;;;;;;;;;6171524;23;20196;-90
2022/08/07 02:14:28;;;;;;;15.68;4.70;;;;;;;;;;6171000;23;20608;-90
2022/08/07 02:17:34;;;;;;;11.63;4.35;;;;;;;;;;6169964;23;20500;-91
2022/08/07 02:20:40;;;;;;;5.75;4.28;;;;;;;;;;6169847;23;20283;-91
2022/08/07 02:23:47;;;;;;;10.27;4.22;;;;;;;;;;6168624;23;20302;-91
2022/08/07 02:26:52;;;;;;;9.02;4.20;;;;;;;;;;6168799;23;20168;-90
2022/08/07 02:30:00;;;;;;;9.35;3.90;;;;;;;;;;6170366;23;20177;-90
2022/08/07 02:33:12;;;;;;;6.80;3.80;;;;;;;;;;6168644;23;20216;-91
2022/08/07 02:36:18;;;;;;;9.57;3.90;;;;;;;;;;6169588;23;20197;-91
2022/08/07 02:39:26;;;;;;;6.43;3.80;;;;;;;;;;6173945;23;20172;-90
2022/08/07 02:42:33;;;;;;;12.07;3.78;;;;;;;;;;6180071;23;20551;-89
2022/08/07 02:45:46;;;;;;;6.03;3.80;;;;;;;;;;6173172;23;20668;-90
2022/08/07 02:48:52;;;;;;;8.10;3.67;;;;;;;;;;6170509;23;20188;-90
2022/08/07 02:51:58;;;;;;;6.53;3.75;;;;;;;;;;6170062;23;20173;-91
2022/08/07 02:55:06;;;;;;;7.10;3.17;;;;;;;;;;6168455;23;20663;-90
2022/08/07 02:58:13;;;;;;;5.78;2.83;;;;;;;;;;6168208;23;20338;-89
2022/08/07 03:01:21;;;;;;;8.00;3.42;;;;;;;;;;6169767;23;20269;-89
2022/08/07 03:04:27;;;;;;;4.78;2.90;;;;;;;;;;6170203;23;20492;-88
2022/08/07 03:07:33;;;;;;;6.80;3.42;;;;;;;;;;6169041;23;20594;-89
2022/08/07 03:10:40;;;;;;;7.53;3.33;;;;;;;;;;6170644;23;20169;-90
2022/08/07 03:13:47;;;;;;;5.90;3.03;;;;;;;;;;6170486;23;20157;-90
2022/08/07 03:16:52;;;;;;;3.78;2.70;;;;;;;;;;6171503;23;20309;-88
2022/08/07 03:19:58;;;;;;;4.05;2.88;;;;;;;;;;6170803;23;20193;-90
2022/08/07 03:23:06;;;;;;;7.53;3.42;;;;;;;;;;6169726;23;20176;-89
2022/08/07 03:26:15;;;;;;;11.20;3.50;;;;;;;;;;6172705;23;20164;-90
2022/08/07 03:29:21;;;;;;;7.68;3.38;;;;;;;;;;6171068;23;20497;-90
2022/08/07 03:32:28;;;;;;;7.18;3.30;;;;;;;;;;6171364;23;20176;-90
2022/08/07 03:35:37;;;;;;;4.50;3.15;;;;;;;;;;6170706;23;20252;-90
2022/08/07 03:38:43;;;;;;;4.88;2.65;;;;;;;;;;6171045;23;20173;-90
2022/08/07 03:41:51;;;;;;;9.43;3.17;;;;;;;;;;6170390;23;20635;-90
2022/08/07 03:45:16;;;;;;;6.82;2.85;;;;;;;;;;6168102;23;20247;-89
2022/08/07 03:48:22;;;;;;;6.50;2.95;;;;;;;;;;6171181;23;20193;-89
2022/08/07 03:51:29;;;;;;;5.20;3.03;;;;;;;;;;6170297;23;20172;-89
2022/08/07 03:54:35;;;;;;;6.50;3.10;;;;;;;;;;6169275;23;20710;-89
2022/08/07 03:57:45;;;;;;;6.75;3.20;;;;;;;;;;6168793;23;20156;-90
2022/08/07 04:00:53;;;;;;;6.63;2.65;;;;;;;;;;6169212;23;20180;-89
2022/08/07 04:03:58;;;;;;;3.65;2.30;;;;;;;;;;6168586;23;20505;-88
2022/08/07 04:07:06;;;;;;;4.30;2.35;;;;;;;;;;6169197;23;20251;-89
2022/08/07 04:10:12;;;;;;;8.80;2.70;;;;;;;;;;6169033;23;20177;-89
2022/08/07 04:13:19;;;;;;;7.32;2.30;;;;;;;;;;6170300;23;20157;-89
2022/08/07 04:16:25;;;;;;;6.65;2.05;;;;;;;;;;6169924;23;20285;-89
2022/08/07 04:19:30;;;;;;;5.75;2.00;;;;;;;;;;6170380;23;20176;-88
2022/08/07 04:22:36;;;;;;;9.90;2.35;;;;;;;;;;6170731;23;20172;-89
2022/08/07 04:25:44;;;;;;;6.18;2.10;;;;;;;;;;6171015;23;20176;-89
2022/08/07 04:28:56;;;;;;;2.97;2.15;;;;;;;;;;6171684;23;20392;-90
2022/08/07 04:32:02;;;;;;;8.10;2.67;;;;;;;;;;6170342;23;20168;-89
2022/08/07 04:35:08;;;;;;;3.53;1.80;;;;;;;;;;6170191;23;20167;-90
2022/08/07 04:38:14;;;;;;;6.28;2.47;;;;;;;;;;6170247;23;20173;-89
2022/08/07 04:41:28;;;;;;;5.97;2.30;;;;;;;;;;6169993;23;20177;-89
2022/08/07 04:44:43;;;;;;;3.55;1.75;;;;;;;;;;6169608;23;20235;-90
2022/08/07 04:47:56;;;;;;;3.63;1.95;;;;;;;;;;6170561;23;20606;-90
2022/08/07 04:51:04;;;;;;;3.42;2.00;;;;;;;;;;6168972;23;20240;-89
2022/08/07 04:54:14;;;;;;;2.58;1.85;;;;;;;;;;6168947;23;20172;-88
2022/08/07 04:57:24;;;;;;;5.15;1.73;;;;;;;;;;6167997;23;20659;-89
2022/08/07 05:00:38;;;;;;;5.50;2.10;;;;;;;;;;6169124;23;20168;-90
2022/08/07 05:03:46;;;;;;;3.55;1.85;;;;;;;;;;6170157;23;20196;-91
2022/08/07 05:06:57;;;;;;;5.93;2.22;;;;;;;;;;6169631;23;20176;-90
2022/08/07 05:10:09;;;;;;;3.33;2.10;;;;;;;;;;6169059;23;20230;-91
2022/08/07 05:13:19;;;;;;;5.78;2.28;;;;;;;;;;6169064;23;20168;-90
2022/08/07 05:16:29;;;;;;;3.53;2.05;;;;;;;;;;6167969;23;20192;-89
2022/08/07 05:19:37;;;;;;;9.18;2.80;;;;;;;;;;6168604;23;20176;-90
2022/08/07 05:22:43;;;;;;;4.10;2.28;;;;;;;;;;6168059;23;20213;-89
2022/08/07 05:25:50;;;;;;;8.25;2.08;;;;;;;;;;6169296;23;20616;-90
2022/08/07 05:28:57;;;;;;;4.03;2.00;;;;;;;;;;6168361;23;20220;-89
2022/08/07 05:32:08;;;;;;;5.00;2.00;;;;;;;;;;6169086;23;20172;-90
2022/08/07 05:35:13;;;;;;;6.38;1.85;;;;;;;;;;6169819;23;20660;-90
2022/08/07 05:38:20;;;;;;;4.75;2.20;;;;;;;;;;6167849;23;20228;-90
2022/08/07 05:41:26;;;;;;;4.72;1.95;;;;;;;;;;6167318;23;20171;-90
2022/08/07 05:44:37;;;;;;;4.93;1.67;;;;;;;;;;6168643;23;20153;-90
2022/08/07 05:47:45;;;;;;;6.53;2.00;;;;;;;;;;6170605;23;20188;-89
2022/08/07 05:50:51;;;;;;;6.28;2.00;;;;;;;;;;6168739;23;20216;-89
2022/08/07 05:53:58;;;;;;;6.80;1.98;;;;;;;;;;6168134;23;20164;-90
2022/08/07 05:57:04;;;;;;;5.93;2.22;;;;;;;;;;6167964;23;20236;-91
2022/08/07 06:00:12;;;;;;;5.32;1.95;;;;;;;;;;6168137;23;20184;-91
2022/08/07 06:03:25;;;;;;;9.18;2.03;;;;;;;;;;6168859;23;20156;-90
2022/08/07 06:06:30;;;;;;;4.55;1.77;;;;;;;;;;6169959;23;20244;-90
2022/08/07 06:09:36;;;;;;;1.98;1.63;;;;;;;;;;6168920;23;20284;-89
2022/08/07 06:12:43;;;;;;;4.18;2.08;;;;;;;;;;6170686;23;20169;-88
2022/08/07 06:15:49;;;;;;;4.53;1.75;;;;;;;;;;6169073;23;20197;-91
2022/08/07 06:19:02;;;;;;;6.35;2.05;;;;;;;;;;6173504;23;20152;-89
2022/08/07 06:22:08;;;;;;;3.47;1.75;;;;;;;;;;6171735;23;20205;-91
2022/08/07 06:25:14;;;;;;;4.18;1.80;;;;;;;;;;6170016;23;20636;-90
2022/08/07 06:28:19;;;;;;;1.98;1.50;;;;;;;;;;6171588;23;20209;-91
2022/08/07 06:31:25;;;;;;;3.92;1.40;;;;;;;;;;6168393;23;20172;-89
2022/08/07 06:34:33;;;;;;;4.55;1.83;;;;;;;;;;6170413;23;20172;-90
2022/08/07 06:37:39;;;;;;;1.83;1.42;;;;;;;;;;6169639;23;20261;-91
2022/08/07 06:40:50;;;;;;;6.68;1.98;;;;;;;;;;6169277;23;20175;-91
2022/08/07 06:43:58;;;;;;;3.13;1.70;;;;;;;;;;6170209;23;20164;-89
2022/08/07 06:47:04;;;;;;;4.85;1.58;;;;;;;;;;6175953;23;20211;-90
2022/08/07 06:50:11;;;;;;;4.28;1.60;;;;;;;;;;6200240;23;20172;-89
2022/08/07 06:53:21;;;;;;;4.18;1.48;;;;;;;;;;6203791;23;20167;-91
2022/08/07 06:56:39;;;;;;;3.40;1.40;;;;;;;;;;6201272;23;20230;-91
2022/08/07 06:59:50;;;;;;;4.00;1.20;;;;;;;;;;6202514;23;20232;-90
2022/08/07 07:02:57;;;;;;;2.97;1.17;;;;;;;;;;6200768;23;20167;-92
2022/08/07 07:06:03;;;;;;;3.53;1.30;;;;;;;;;;6199973;23;20196;-90
2022/08/07 07:09:23;;;;;;;1.42;1.20;;;;;;;;;;6201745;23;20624;-91
2022/08/07 07:12:32;;;;;;;3.60;1.20;;;;;;;;;;6201155;23;20164;-90
2022/08/07 07:15:41;;;;;;;2.28;1.13;;;;;;;;;;6200136;23;20223;-91
2022/08/07 07:18:53;;;;;;;4.97;1.50;;;;;;;;;;6198922;23;20172;-90
2022/08/07 07:22:01;;;;;;;4.10;1.50;;;;;;;;;;6201461;23;20155;-91
2022/08/07 07:25:07;;;;;;;4.80;1.40;;;;;;;;;;6201811;23;20614;-90
2022/08/07 07:28:15;;;;;;;13.55;1.30;;;;;;;;;;6201255;23;20224;-90
2022/08/07 07:31:23;;;;;;;5.57;1.50;;;;;;;;;;6200305;23;20503;-90
2022/08/07 07:34:30;;;;;;;3.42;1.33;;;;;;;;;;6198799;23;20608;-90
2022/08/07 07:37:43;;;;;;;2.42;1.40;;;;;;;;;;6199964;23;20195;-90
2022/08/07 07:40:49;;;;;;;1.95;1.00;;;;;;;;;;6200829;23;20300;-90
2022/08/07 07:43:55;;;;;;;4.00;1.00;;;;;;;;;;6203122;23;20416;-90
2022/08/07 07:47:02;;;;;;;2.53;0.88;;;;;;;;;;6201606;23;20199;-91
2022/08/07 07:50:08;;;;;;;1.40;1.00;;;;;;;;;;6199508;23;20218;-90
2022/08/07 07:53:16;;;;;;;1.52;1.00;;;;;;;;;;6199286;23;20156;-91
2022/08/07 07:56:23;;;;;;;1.33;0.85;;;;;;;;;;6199106;23;20203;-91
2022/08/07 07:59:30;;;;;;;1.67;0.90;;;;;;;;;;6198591;23;20237;-92
2022/08/07 08:02:36;;;;;;;2.25;1.30;;;;;;;;;;6198779;23;20483;-91
2022/08/07 08:05:42;;;;;;;2.55;0.98;;;;;;;;;;6200188;23;20168;-90
2022/08/07 08:08:50;;;;;;;2.63;1.00;;;;;;;;;;6198390;23;20197;-89
2022/08/07 08:11:55;;;;;;;3.50;0.98;;;;;;;;;;6199403;23;20296;-89
2022/08/07 08:15:01;;;;;;;1.00;0.93;;;;;;;;;;6196207;23;20168;-89
2022/08/07 08:18:07;;;;;;;1.88;1.08;;;;;;;;;;6197932;23;20267;-89
2022/08/07 08:27:03;;;;;;;4.85;1.92;;;;;;;;;;6214292;23;20179;-91
2022/08/07 08:28:10;;;;;;;3.55;1.20;;;;;;;;;;6199129;23;20192;-92
2022/08/07 08:31:18;;;;;;;4.20;1.30;;;;;;;;;;6198822;23;20252;-89
2022/08/07 08:34:25;;;;;;;3.45;1.30;;;;;;;;;;6200231;23;20229;-90
2022/08/07 08:37:33;;;;;;;3.40;1.48;;;;;;;;;;6199152;23;20191;-90
2022/08/07 08:40:42;;;;;;;5.35;1.40;;;;;;;;;;6198145;23;20168;-90
2022/08/07 08:43:51;;;;;;;4.45;2.00;;;;;;;;;;6199017;23;20172;-90
2022/08/07 08:47:02;;;;;;;1.75;1.38;;;;;;;;;;6198406;23;20183;-89
2022/08/07 08:50:13;;;;;;;5.43;1.83;;;;;;;;;;6198986;23;20167;-91
2022/08/07 08:53:30;;;;;;;2.28;1.30;;;;;;;;;;6198471;23;20180;-91
2022/08/07 08:56:39;;;;;;;2.70;1.30;;;;;;;;;;6199494;23;20193;-92
2022/08/07 08:59:48;;;;;;;2.05;1.50;;;;;;;;;;6200092;23;20172;-90
2022/08/07 09:03:00;;;;;;;2.72;1.60;;;;;;;;;;6197953;23;20219;-92
2022/08/07 09:06:08;;;;;;;3.42;1.60;;;;;;;;;;6196008;23;20168;-91
2022/08/07 09:09:21;;;;;;;4.40;1.77;;;;;;;;;;6195492;23;20155;-91
2022/08/07 09:12:38;;;;;;;2.15;1.48;;;;;;;;;;6197098;23;20490;-91
2022/08/07 09:15:45;;;;;;;4.15;1.80;;;;;;;;;;6197247;23;20701;-92
2022/08/07 09:19:03;;;;;;;5.30;1.60;;;;;;;;;;6197025;23;20274;-92
2022/08/07 09:22:12;;;;;;;2.85;1.42;;;;;;;;;;6197529;23;20176;-92
2022/08/07 09:25:22;;;;;;;3.25;1.50;;;;;;;;;;6199070;23;20171;-91
2022/08/07 09:28:37;;;;;;;2.13;1.30;;;;;;;;;;6199032;23;20172;-91
2022/08/07 09:31:46;;;;;;;2.50;1.30;;;;;;;;;;6202094;23;20187;-92
2022/08/07 09:34:55;;;;;;;2.05;1.30;;;;;;;;;;6199646;23;20158;-90
2022/08/07 09:38:06;;;;;;;2.80;1.50;;;;;;;;;;6199640;23;20202;-91
2022/08/07 09:41:18;;;;;;;3.40;1.50;;;;;;;;;;6198998;23;20171;-91
2022/08/07 09:44:31;;;;;;;3.95;1.52;;;;;;;;;;6199168;23;20163;-92
2022/08/07 09:47:46;;;;;;;2.75;1.40;;;;;;;;;;6200254;23;20195;-91
2022/08/07 09:51:00;;;;;;;3.58;1.48;;;;;;;;;;6198687;23;20172;-89
2022/08/07 09:54:09;;;;;;;2.05;1.30;;;;;;;;;;6201914;23;20235;-90
2022/08/07 09:57:25;;;;;;;3.30;1.35;;;;;;;;;;6200396;23;20192;-92
2022/08/07 10:00:39;;;;;;;2.63;1.38;;;;;;;;;;6198713;23;20192;-93
2022/08/07 10:03:52;;;;;;;2.95;1.30;;;;;;;;;;6213429;22;20495;-91
2022/08/07 10:07:03;;;;;;;1.70;1.30;;;;;;;;;;6197422;23;20159;-91
2022/08/07 10:10:14;;;;;;;3.90;1.60;;;;;;;;;;6197017;23;20239;-91
2022/08/07 10:13:27;;;;;;;5.72;2.00;;;;;;;;;;6198620;23;20171;-91
2022/08/07 10:16:43;;;;;;;2.85;1.80;;;;;;;;;;6197406;23;20172;-91
2022/08/07 10:19:57;;;;;;;2.50;1.33;;;;;;;;;;6198586;23;20195;-91
2022/08/07 10:23:10;;;;;;;5.18;1.50;;;;;;;;;;6198358;23;20614;-91
2022/08/07 10:26:24;;;;;;;4.63;1.67;;;;;;;;;;6199063;23;20163;-90
2022/08/07 10:29:48;;;;;;;3.33;1.52;;;;;;;;;;6200431;23;20255;-91
2022/08/07 10:33:00;;;;;;;4.60;3.13;;;;;;;;;;6200829;23;20156;-90
2022/08/07 10:36:15;;;;;;;4.03;2.08;;;;;;;;;;6199611;23;20606;-90
2022/08/07 10:39:28;;;;;;;3.25;1.70;;;;;;;;;;6199380;23;20171;-91
2022/08/07 10:42:37;;;;;;;3.75;1.52;;;;;;;;;;6200521;23;20221;-91
2022/08/07 10:46:08;;;;;;;2.38;1.40;;;;;;;;;;6199705;23;20231;-91
2022/08/07 10:49:25;;;;;;;1.77;1.20;;;;;;;;;;6201738;23;20182;-91
2022/08/07 10:52:34;;;;;;;4.35;1.27;;;;;;;;;;6199016;23;20188;-90
2022/08/07 10:55:43;;;;;;;3.53;1.70;;;;;;;;;;6201021;23;20152;-92
2022/08/07 10:59:01;;;;;;;2.17;1.20;;;;;;;;;;6203414;23;20239;-90
2022/08/07 11:02:10;;;;;;;2.75;1.70;;;;;;;;;;6202916;23;20171;-91
2022/08/07 11:05:29;;;;;;;3.88;1.52;;;;;;;;;;6202502;23;20167;-92
2022/08/07 11:08:39;;;;;;;2.47;1.40;;;;;;;;;;6201453;23;20503;-92
2022/08/07 11:11:48;;;;;;;2.15;1.35;;;;;;;;;;6204117;23;20187;-92
2022/08/07 11:14:55;;;;;;;5.63;1.40;;;;;;;;;;6204327;23;20171;-92
2022/08/07 11:18:03;;;;;;;3.80;1.30;;;;;;;;;;6202317;23;20199;-91
2022/08/07 11:21:13;;;;;;;2.22;1.40;;;;;;;;;;6204078;23;20215;-90
2022/08/07 11:24:22;;;;;;;2.60;1.30;;;;;;;;;;6206303;23;20233;-92
2022/08/07 11:27:30;;;;;;;4.75;2.25;;;;;;;;;;6204020;23;20203;-92
2022/08/07 11:30:42;;;;;;;3.22;1.50;;;;;;;;;;6204884;23;20159;-91
2022/08/07 11:33:50;;;;;;;3.25;1.60;;;;;;;;;;6205424;23;20175;-92
2022/08/07 11:37:01;;;;;;;2.05;1.30;;;;;;;;;;6203718;23;20167;-92
2022/08/07 11:40:11;;;;;;;3.42;1.50;;;;;;;;;;6201469;23;20632;-92
2022/08/07 11:43:19;;;;;;;1.83;1.40;;;;;;;;;;6201044;23;20203;-91
2022/08/07 11:46:42;;;;;;;2.58;1.40;;;;;;;;;;6202472;23;20203;-92
2022/08/07 11:50:11;;;;;;;3.35;1.20;;;;;;;;;;6203762;23;20171;-92
2022/08/07 11:53:23;;;;;;;2.47;1.42;;;;;;;;;;6185645;23;20230;-92
2022/08/07 11:56:39;;;;;;;3.90;1.42;;;;;;;;;;6202940;23;20171;-91
2022/08/07 12:00:02;;;;;;;2.30;1.20;;;;;;;;;;6204041;23;20176;-90
2022/08/07 12:03:20;;;;;;;2.15;1.30;;;;;;;;;;6204374;23;20504;-91
2022/08/07 12:06:46;;;;;;;4.60;1.30;;;;;;;;;;6200846;23;20163;-91
2022/08/07 12:09:56;;;;;;;3.80;1.30;;;;;;;;;;6202281;23;20220;-91
2022/08/07 12:13:06;;;;;;;8.82;5.00;;;;;;;;;;6202273;23;20164;-92
2022/08/07 12:16:15;;;;;;;2.75;1.20;;;;;;;;;;6201125;23;20188;-90
2022/08/07 12:19:26;;;;;;;3.65;1.40;;;;;;;;;;6200643;23;20176;-89
2022/08/07 12:22:36;;;;;;;2.65;1.40;;;;;;;;;;6199074;23;20222;-90
2022/08/07 12:25:54;;;;;;;2.45;1.42;;;;;;;;;;6200756;23;20151;-90
2022/08/07 12:29:06;;;;;;;4.68;1.40;;;;;;;;;;6217322;23;20219;-92
2022/08/07 12:32:16;;;;;;;4.28;1.77;;;;;;;;;;6199581;23;20167;-90
2022/08/07 12:35:23;;;;;;;4.25;1.50;;;;;;;;;;6200257;23;20176;-90
2022/08/07 12:38:30;;;;;;;3.60;1.40;;;;;;;;;;6200248;23;20199;-92
2022/08/07 12:41:39;;;;;;;2.08;1.20;;;;;;;;;;6203460;23;20171;-90
2022/08/07 12:44:46;;;;;;;2.65;1.35;;;;;;;;;;6202243;23;20176;-91
2022/08/07 12:47:57;;;;;;;2.30;1.15;;;;;;;;;;6200722;23;20187;-92
2022/08/07 12:51:05;;;;;;;2.70;1.40;;;;;;;;;;6202514;23;20160;-90
2022/08/07 12:54:16;;;;;;;5.78;1.40;;;;;;;;;;6202507;23;20187;-91
2022/08/07 12:57:26;;;;;;;2.00;1.35;;;;;;;;;;6199381;23;20502;-90
2022/08/07 13:00:35;;;;;;;2.38;1.10;;;;;;;;;;6200824;23;20178;-91
2022/08/07 13:03:52;;;;;;;1.65;1.20;;;;;;;;;;6198880;23;20167;-90
2022/08/07 13:07:04;;;;;;;3.78;1.50;;;;;;;;;;6199533;23;20171;-90
2022/08/07 13:10:23;;;;;;;2.63;1.23;;;;;;;;;;6200277;23;20160;-91
2022/08/07 13:13:33;;;;;;;3.15;1.20;;;;;;;;;;6200840;23;20227;-91
2022/08/07 13:16:45;;;;;;;3.70;1.15;;;;;;;;;;6200415;23;20171;-90
2022/08/07 13:19:53;;;;;;;5.18;1.27;;;;;;;;;;6196975;23;20205;-90
2022/08/07 13:23:01;;;;;;;5.13;1.40;;;;;;;;;;6198396;23;20170;-90
2022/08/07 13:26:10;;;;;;;1.77;1.20;;;;;;;;;;6199057;23;20195;-90
2022/08/07 13:29:21;;;;;;;1.90;1.35;;;;;;;;;;6198714;23;20167;-92
2022/08/07 13:32:30;;;;;;;3.05;1.30;;;;;;;;;;6199454;23;20215;-91
2022/08/07 13:35:38;;;;;;;3.10;1.30;;;;;;;;;;6198523;23;20168;-90
2022/08/07 13:38:48;;;;;;;1.20;0.90;;;;;;;;;;6200279;23;20183;-90
2022/08/07 13:41:54;;;;;;;2.20;1.20;;;;;;;;;;6198376;23;20254;-91
2022/08/07 13:45:03;;;;;;;2.28;1.20;;;;;;;;;;6197836;23;20195;-89
2022/08/07 13:48:12;;;;;;;3.17;1.40;;;;;;;;;;6197317;23;20191;-90
2022/08/07 13:51:17;;;;;;;4.97;1.60;;;;;;;;;;6198661;23;20180;-92
2022/08/07 13:54:32;;;;;;;2.63;1.27;;;;;;;;;;6199780;23;20169;-90
2022/08/07 13:57:39;;;;;;;4.15;1.38;;;;;;;;;;6199818;23;20171;-90
2022/08/07 14:00:47;;;;;;;2.40;1.20;;;;;;;;;;6200101;23;20164;-90
2022/08/07 14:03:57;;;;;;;3.80;1.25;;;;;;;;;;6205357;23;20155;-89
2022/08/07 14:07:06;;;;;;;2.53;1.73;;;;;;;;;;6199806;23;20215;-91
2022/08/07 14:10:13;;;;;;;1.75;1.40;;;;;;;;;;6199102;23;20172;-89
2022/08/07 14:13:22;;;;;;;1.45;1.30;;;;;;;;;;6199943;23;20180;-89
2022/08/07 14:16:34;;;;;;;3.38;1.20;;;;;;;;;;6197654;23;20222;-90
2022/08/07 14:19:52;;;;;;;6.63;1.33;;;;;;;;;;6198310;23;20199;-92
2022/08/07 14:23:02;;;;;;;2.38;1.42;;;;;;;;;;6198850;23;20172;-90
2022/08/07 14:26:11;;;;;;;2.03;1.15;;;;;;;;;;6199208;23;20160;-90
2022/08/07 14:29:19;;;;;;;1.50;1.13;;;;;;;;;;6197802;23;20220;-91
2022/08/07 14:32:28;;;;;;;1.85;1.38;;;;;;;;;;6199954;23;20172;-91
2022/08/07 14:35:36;;;;;;;2.78;1.27;;;;;;;;;;6200452;23;20245;-91
2022/08/07 14:38:43;;;;;;;2.30;1.30;;;;;;;;;;6213749;22;20260;-90
2022/08/07 14:41:49;;;;;;;2.97;1.35;;;;;;;;;;6200154;23;20171;-90
2022/08/07 14:44:58;;;;;;;1.33;1.10;;;;;;;;;;6200207;23;20172;-90
2022/08/07 14:48:08;;;;;;;3.28;1.30;;;;;;;;;;6198658;23;20191;-91
2022/08/07 14:51:19;;;;;;;4.95;1.50;;;;;;;;;;6199846;23;20168;-91
2022/08/07 14:54:24;;;;;;;3.97;1.30;;;;;;;;;;6196455;23;20172;-90
2022/08/07 14:57:31;;;;;;;1.92;1.15;;;;;;;;;;6199104;23;20152;-91
2022/08/07 15:00:38;;;;;;;2.53;1.00;;;;;;;;;;6198995;23;20172;-90
2022/08/07 15:03:45;;;;;;;2.95;1.20;;;;;;;;;;6198849;23;20499;-91
2022/08/07 15:06:51;;;;;;;1.95;1.10;;;;;;;;;;6198704;23;20172;-91
2022/08/07 15:09:58;;;;;;;1.80;0.98;;;;;;;;;;6198699;23;20166;-92
2022/08/07 15:13:06;;;;;;;2.85;1.10;;;;;;;;;;6197212;23;20241;-91
2022/08/07 15:16:11;;;;;;;2.88;1.13;;;;;;;;;;6199510;23;20175;-92
2022/08/07 15:19:20;;;;;;;6.90;1.92;;;;;;;;;;6199131;23;20194;-91
2022/08/07 15:22:27;;;;;;;2.08;1.25;;;;;;;;;;6200793;23;20208;-90
2022/08/07 15:25:36;;;;;;;3.25;1.17;;;;;;;;;;6197751;23;20172;-88
2022/08/07 15:28:42;;;;;;;3.92;1.30;;;;;;;;;;6197330;23;20225;-91
2022/08/07 15:31:52;;;;;;;1.48;1.25;;;;;;;;;;6199412;23;20157;-89
2022/08/07 15:35:01;;;;;;;2.45;1.48;;;;;;;;;;6202307;23;20168;-90
2022/08/07 15:38:06;;;;;;;1.77;1.20;;;;;;;;;;6198560;23;20172;-90
2022/08/07 15:41:16;;;;;;;4.53;2.03;;;;;;;;;;6197519;23;20176;-90
2022/08/07 15:44:22;;;;;;;3.28;1.65;;;;;;;;;;6202290;23;20204;-89
2022/08/07 15:47:28;;;;;;;3.08;1.38;;;;;;;;;;6195982;23;20235;-90
2022/08/07 15:50:36;;;;;;;2.95;1.38;;;;;;;;;;6198269;23;20179;-89
2022/08/07 15:53:43;;;;;;;2.92;1.40;;;;;;;;;;6198318;23;20219;-90
2022/08/07 15:56:48;;;;;;;2.10;1.40;;;;;;;;;;6198125;23;20176;-90
2022/08/07 15:59:54;;;;;;;3.38;1.40;;;;;;;;;;6195179;23;20634;-89
2022/08/07 16:03:03;;;;;;;2.95;1.70;;;;;;;;;;6198999;23;20155;-89
2022/08/07 16:06:14;;;;;;;2.55;1.45;;;;;;;;;;6199709;23;20167;-91
2022/08/07 16:09:22;;;;;;;1.70;1.17;;;;;;;;;;6197343;23;20192;-90
2022/08/07 16:12:33;;;;;;;2.22;1.33;;;;;;;;;;6197822;23;20184;-89
2022/08/07 16:15:42;;;;;;;2.47;1.48;;;;;;;;;;6196610;23;20167;-90
2022/08/07 16:22:37;;;;;;;2.78;1.70;;;;;;;;;;6197071;23;20171;-90
2022/08/07 16:25:50;;;;;;;2.75;1.70;;;;;;;;;;6198598;23;20247;-90
2022/08/07 16:29:03;;;;;;;2.00;1.48;;;;;;;;;;6202417;23;20627;-89
2022/08/07 16:32:11;;;;;;;2.20;1.40;;;;;;;;;;6200659;23;20188;-89
2022/08/07 16:35:18;;;;;;;4.93;2.20;;;;;;;;;;6200893;23;20183;-90
2022/08/07 16:38:35;;;;;;;3.97;1.40;;;;;;;;;;6201406;23;20211;-90
2022/08/07 16:41:50;;;;;;;2.72;1.50;;;;;;;;;;6201011;23;20237;-90
2022/08/07 16:45:01;;;;;;;1.90;1.40;;;;;;;;;;6200333;23;20179;-90
2022/08/07 16:48:37;;;;;;;3.05;1.67;;;;;;;;;;6202089;23;20191;-89
2022/08/07 16:55:16;;;;;;;4.03;1.80;;;;;;;;;;6203321;23;20210;-92
2022/08/07 16:58:23;;;;;;;15.05;9.13;;;;;;;;;;6200373;23;20175;-91
2022/08/07 17:01:34;;;;;;;5.45;2.70;;;;;;;;;;6200611;23;20298;-91
2022/08/07 17:04:41;;;;;;;2.60;1.63;;;;;;;;;;6203030;23;20159;-91
2022/08/07 17:07:48;;;;;;;2.53;1.63;;;;;;;;;;6200506;23;20198;-92
2022/08/07 17:10:57;;;;;;;4.18;1.52;;;;;;;;;;6199279;23;20175;-89
2022/08/07 17:14:05;;;;;;;3.92;1.42;;;;;;;;;;6199625;23;20252;-91
2022/08/07 17:17:19;;;;;;;2.28;1.40;;;;;;;;;;6199030;23;20419;-90
2022/08/07 17:20:32;;;;;;;4.53;1.70;;;;;;;;;;6200172;23;20225;-91
2022/08/07 17:23:43;;;;;;;3.08;1.50;;;;;;;;;;6200914;23;20163;-90
2022/08/07 17:26:55;;;;;;;3.35;1.58;;;;;;;;;;6201831;23;20187;-90
2022/08/07 17:30:05;;;;;;;3.83;1.50;;;;;;;;;;6201893;23;20219;-90
2022/08/07 17:33:14;;;;;;;2.50;1.70;;;;;;;;;;6200280;23;20168;-89
2022/08/07 17:36:24;;;;;;;3.67;1.50;;;;;;;;;;6198295;23;20615;-92
2022/08/07 17:39:39;;;;;;;4.30;1.70;;;;;;;;;;6198069;23;20187;-89
2022/08/07 17:42:51;;;;;;;5.03;1.55;;;;;;;;;;6200357;23;20180;-90
2022/08/07 17:46:42;;;;;;;4.18;1.70;;;;;;;;;;6199348;23;20188;-89
2022/08/07 17:49:52;;;;;;;4.57;1.70;;;;;;;;;;6198346;23;20228;-90
2022/08/07 17:52:59;;;;;;;7.20;1.85;;;;;;;;;;6199771;23;20231;-92
2022/08/07 17:56:11;;;;;;;5.72;1.88;;;;;;;;;;6200301;23;20732;-92
2022/08/07 17:59:23;;;;;;;3.58;2.10;;;;;;;;;;6200156;23;20195;-90
2022/08/07 18:02:36;;;;;;;4.78;1.95;;;;;;;;;;6203188;23;20187;-90
2022/08/07 18:05:46;;;;;;;3.28;1.80;;;;;;;;;;6198065;23;20152;-89
2022/08/07 18:08:56;;;;;;;3.15;1.80;;;;;;;;;;6200918;23;20163;-91
2022/08/07 18:12:05;;;;;;;4.25;2.17;;;;;;;;;;6199417;23;20639;-90
2022/08/07 18:15:13;;;;;;;3.53;2.20;;;;;;;;;;6199783;23;20241;-90
2022/08/07 18:18:19;;;;;;;3.95;2.60;;;;;;;;;;6201512;23;20264;-90
2022/08/07 18:21:27;;;;;;;4.32;2.30;;;;;;;;;;6196082;23;20172;-92
2022/08/07 18:24:36;;;;;;;6.15;1.98;;;;;;;;;;6183009;23;20196;-91
2022/08/07 18:27:55;;;;;;;6.20;2.13;;;;;;;;;;6216857;23;20184;-92
2022/08/07 18:31:11;;;;;;;3.30;1.83;;;;;;;;;;6197411;23;20219;-90
2022/08/07 18:34:23;;;;;;;4.35;1.83;;;;;;;;;;6196437;23;20171;-93
2022/08/07 18:37:34;;;;;;;4.10;2.17;;;;;;;;;;6197486;23;20209;-90
2022/08/07 18:40:46;;;;;;;7.03;1.90;;;;;;;;;;6197772;23;20222;-91
2022/08/07 18:44:00;;;;;;;2.70;1.65;;;;;;;;;;6197905;23;20224;-91
2022/08/07 18:47:18;;;;;;;4.32;1.90;;;;;;;;;;6201054;23;20196;-92
2022/08/07 18:50:40;;;;;;;3.45;1.70;;;;;;;;;;6199906;23;20148;-91
2022/08/07 18:53:50;;;;;;;5.18;1.90;;;;;;;;;;6200877;23;20264;-92
2022/08/07 18:56:59;;;;;;;2.80;2.00;;;;;;;;;;6201608;23;20168;-91
2022/08/07 19:00:08;;;;;;;7.80;3.53;;;;;;;;;;6200379;23;20195;-90
2022/08/07 19:03:19;;;;;;;2.22;1.77;;;;;;;;;;6201789;23;20169;-90
2022/08/07 19:06:29;;;;;;;4.43;1.90;;;;;;;;;;6204753;23;20203;-92
2022/08/07 19:09:41;;;;;;;4.78;1.80;;;;;;;;;;6202460;23;20172;-91
2022/08/07 19:12:49;;;;;;;4.57;2.05;;;;;;;;;;6203679;23;20223;-91
2022/08/07 19:15:58;;;;;;;3.70;1.83;;;;;;;;;;6198907;23;20164;-90
2022/08/07 19:19:09;;;;;;;5.10;2.05;;;;;;;;;;6198434;23;20195;-90
2022/08/07 19:22:21;;;;;;;25.70;15.50;;;;;;;;;;6198429;23;20152;-91
2022/08/07 19:25:28;;;;;;;2.95;2.17;;;;;;;;;;6199398;23;20188;-91
2022/08/07 19:28:35;;;;;;;5.75;2.25;;;;;;;;;;6199575;23;20211;-91
2022/08/07 19:31:41;;;;;;;3.65;1.80;;;;;;;;;;6198785;23;20175;-91
2022/08/07 19:34:58;;;;;;;6.30;3.30;;;;;;;;;;6198312;23;20172;-91
2022/08/07 19:38:09;;;;;;;4.13;2.35;;;;;;;;;;6201155;23;20223;-89
2022/08/07 19:41:16;;;;;;;3.42;2.05;;;;;;;;;;6201933;23;20211;-90
2022/08/07 19:44:25;;;;;;;3.42;2.17;;;;;;;;;;6201446;23;20187;-92
2022/08/07 19:47:32;;;;;;;4.72;1.92;;;;;;;;;;6199768;23;20167;-89
2022/08/07 19:50:39;;;;;;;4.55;2.13;;;;;;;;;;6199727;23;20171;-89
2022/08/07 19:53:49;;;;;;;8.32;2.28;;;;;;;;;;6199265;23;20171;-91
2022/08/07 19:57:14;;;;;;;4.38;1.92;;;;;;;;;;6197687;23;20163;-91